This is the latest recevied weather packets stored in our database for station/object KJ4YLO. If no packets are shown the sender has not sent any weather packets the latest 10 day(s).
| Time | Temp. | Humidity | Pressure | Rain* | Wind** | Luminosity | Snow |
|---|---|---|---|---|---|---|---|
| 1777831116 | 18.89° C | 35% | 1019.7 hPa | 0 mm | - | 805 W/m² | - |
| 1777830814 | 18.89° C | 35% | 1020.1 hPa | 0 mm | - | 805 W/m² | - |
| 1777830509 | 18.89° C | 35% | 1020.1 hPa | 0 mm | - | 805 W/m² | - |
| 1777830208 | 18.89° C | 34% | 1020.1 hPa | 0 mm | - | 776 W/m² | - |
| 1777829903 | 18.33° C | 36% | 1020.1 hPa | 0 mm | - | 747 W/m² | - |
| 1777829599 | 18.33° C | 36% | 1020.1 hPa | 0 mm | - | 747 W/m² | - |
| 1777829296 | 18.33° C | 37% | 1020.1 hPa | 0 mm | - | 729 W/m² | - |
| 1777828994 | 18.89° C | 35% | 1020.4 hPa | 0 mm | - | 767 W/m² | - |
| 1777828690 | 17.78° C | 35% | 1020.1 hPa | 0 mm | - | 803 W/m² | - |
| 1777828387 | 17.78° C | 37% | 1020.4 hPa | 0 mm | - | 790 W/m² | - |
| 1777828084 | 17.78° C | 36% | 1020.4 hPa | 0 mm | - | 787 W/m² | - |
| 1777827780 | 17.78° C | 38% | 1020.8 hPa | 0 mm | - | 814 W/m² | - |
| 1777827477 | 17.78° C | 38% | 1020.8 hPa | 0 mm | - | 814 W/m² | - |
| 1777827175 | 17.78° C | 36% | 1020.8 hPa | 0 mm | - | 762 W/m² | - |
| 1777826870 | 18.33° C | 38% | 1020.8 hPa | 0 mm | - | 708 W/m² | - |
| 1777826569 | 18.33° C | 37% | 1020.8 hPa | 0 mm | - | 678 W/m² | - |
| 1777826264 | 17.78° C | 40% | 1021.1 hPa | 0 mm | - | 704 W/m² | - |
| 1777825963 | 17.78° C | 38% | 1021.1 hPa | 0 mm | - | 668 W/m² | - |
| 1777825659 | 17.78° C | 38% | 1021.1 hPa | 0 mm | - | 668 W/m² | - |
| 1777825358 | 17.78° C | 38% | 1021.1 hPa | 0 mm | - | 668 W/m² | - |
| 1777824750 | 16.67° C | 43% | 1021.1 hPa | 0 mm | - | 189 W/m² | - |
| 1777824447 | 16.67° C | 43% | 1021.1 hPa | 0 mm | - | 189 W/m² | - |
| 1777824143 | 16.67° C | 43% | 1021.8 hPa | 0 mm | - | 189 W/m² | - |
| 1777822931 | 16.11° C | 42% | 1021.8 hPa | 0 mm | - | 138 W/m² | - |
| 1777822629 | 16.11° C | 42% | 1021.4 hPa | 0 mm | - | 138 W/m² | - |
* Rain latest hour (hover to see other rain measurements)
** Current wind speed in m/s (hover to see current wind gust speed)